Flight Track Log - Related Links

Times and Time Zones

All times are in EDT time to prevent confusion due to time zone crossing. See the ASQ6115 flight status page for this flight to view local times or setup timezone preferences in your user account.

Time Position Orientation Groundspeed Altitude Reporting Facility
EDT Latitude Longitude Course Direction KTS MPH feet Rate Location/Type
Sat 10:21:49 PM 29.9639 -95.3433 190° South 164 189 600  Level Houston Center
Sat 10:22:43 PM 29.9342 -95.2997 128° Southeast 205 236 1,700 1,826 Climbing Houston Center
Sat 10:23:44 PM 29.8889 -95.2347 129° Southeast 245 282 4,100 2,534 Climbing Houston Center
Sat 10:24:39 PM 29.8431 -95.1725 130° Southeast 258 297 6,600 2,564 Climbing Houston Center
Sat 10:25:00 PM 29.5949 -95.4104 191° South  Level FlightAware Approximate
Sat 10:25:34 PM 29.7997 -95.1150 131° Southeast 259 298 8,800  Level Houston Center
Sat 10:26:00 PM 29.4979 -95.4304 190° South  Level FlightAware Approximate
Sat 10:26:46 PM 29.7328 -95.0650 147° Southeast 276 318 10,300  Level Houston Center
Sat 10:27:47 PM 29.6533 -95.1075 205° Southwest 310 357 11,200 992 Climbing Houston Center
Sat 10:28:47 PM 29.5600 -95.1583 205° Southwest 346 398 12,300 1,240 Climbing Houston Center
Sat 10:29:48 PM 29.4736 -95.2067 206° Southwest 342 394 13,700 1,230 Climbing Houston Center
Sat 10:30:49 PM 29.3925 -95.2667 213° Southwest 346 398 14,800 1,041 Climbing Houston Center
Sat 10:31:49 PM 29.3167 -95.3400 220° Southwest 355 409 15,800 942 Climbing Houston Center
Sat 10:32:50 PM 29.2394 -95.4139 220° Southwest 361 415 16,700 934 Climbing Houston Center
Sat 10:33:51 PM 29.1614 -95.4886 220° Southwest 366 421 17,700 984 Climbing Houston Center
Sat 10:34:52 PM 29.0836 -95.5644 220° Southwest 368 423 18,700 992 Climbing Houston Center
Sat 10:35:52 PM 29.0036 -95.6403 220° Southwest 372 428 19,700 992 Climbing Houston Center
Sat 10:36:53 PM 28.9225 -95.7167 220° Southwest 377 434 20,700 934 Climbing Houston Center
Sat 10:37:54 PM 28.8406 -95.7947 220° Southwest 383 441 21,600 942 Climbing Houston Center
Sat 10:38:54 PM 28.7583 -95.8728 220° Southwest 385 443 22,600 992 Climbing Houston Center
Sat 10:39:55 PM 28.6753 -95.9514 220° Southwest 388 447 23,600 984 Climbing Houston Center
Sat 10:40:56 PM 28.5839 -96.0378 220° Southwest 388 447 24,600 992 Climbing Houston Center
Sat 10:41:56 PM 28.4994 -96.1161 219° Southwest 389 448 25,600 992 Climbing Houston Center
Sat 10:42:57 PM 28.4164 -96.1953 220° Southwest 389 448 26,600 984 Climbing Houston Center
Sat 10:43:58 PM 28.3314 -96.2733 219° Southwest 392 451 27,600 689 Climbing Houston Center
Sat 10:44:59 PM 28.2472 -96.3536 220° Southwest 393 452 28,000 198 Climbing Houston Center
Sat 10:45:59 PM 28.1556 -96.4378 219° Southwest 420 483 28,000  Level Houston Center
Sat 10:47:00 PM 28.0619 -96.5250 219° Southwest 434 499 28,000  Level Houston Center
Sat 10:48:01 PM 27.9658 -96.6142 219° Southwest 444 511 28,000  Level Houston Center
Sat 10:49:01 PM 27.8683 -96.7044 219° Southwest 450 518 28,000  Level Houston Center
Sat 10:50:02 PM 27.7703 -96.7953 219° Southwest 454 522 28,000  Level Houston Center
Sat 10:51:03 PM 27.6711 -96.8867 219° Southwest 457 526 28,000  Level Houston Center
Sat 10:52:03 PM 27.5728 -96.9767 219° Southwest 457 526 28,000  Level Houston Center
Sat 10:53:04 PM 27.4736 -97.0681 219° Southwest 459 528 28,000  Level Houston Center
Sat 10:54:05 PM 27.3750 -97.1581 219° Southwest 462 532 28,000  Level Houston Center
Sat 10:55:05 PM 27.2753 -97.2486 219° Southwest 462 532 28,000  Level Houston Center
Sat 10:56:06 PM 27.1756 -97.3394 219° Southwest 461 531 28,000 -590 Level Houston Center
Sat 10:57:07 PM 27.0575 -97.4444 218° Southwest 481 554 26,800 -1,983 Descending Houston Center
Sat 10:58:07 PM 26.9608 -97.5331 219° Southwest 465 535 24,000 -2,824 Descending Houston Center
Sat 10:59:06 PM 26.8669 -97.6211 220° Southwest 416 479 21,200 -2,819 Descending Houston Center
Sat 10:59:30 PM 26.8322 -97.6517 218° Southwest 416 479 20,100 -3,000 Descending Houston Center
Sat 11:00:08 PM 26.7728 -97.7036 218° Southwest 406 467 18,100 -2,951 Descending Houston Center
Sat 11:00:31 PM 26.7461 -97.7311 223° Southwest 404 465 17,100 -2,754 Descending Houston Center
Sat 11:01:09 PM 26.6914 -97.7806 219° Southwest 377 434 15,300 -2,852 Descending Houston Center
Sat 11:01:32 PM 26.6644 -97.8122 226° Southwest 364 419 14,200 -2,754 Descending Houston Center
Sat 11:02:10 PM 26.6231 -97.8625 227° Southwest 363 418 12,500 -2,300 Descending Houston Center
Sat 11:02:32 PM 26.5975 -97.8939 228° Southwest 353 406 11,900 -1,200 Descending Houston Center
Sat 11:03:10 PM 26.5614 -97.9392 228° Southwest 339 390 11,300 -1,082 Descending Houston Center
Sat 11:03:33 PM 26.5417 -97.9619 226° Southwest 295 339 10,800 -1,672 Descending Houston Center
Sat 11:04:11 PM 26.5092 -98.0019 228° Southwest 286 329 9,600 -2,000 Descending Houston Center
Sat 11:04:33 PM 26.4875 -98.0275 227° Southwest 270 311 8,800 -1,770 Descending Houston Center
Sat 11:05:12 PM 26.4561 -98.0650 227° Southwest 280 322 7,800 -1,672 Descending Houston Center
Sat 11:05:34 PM 26.4353 -98.0903 227° Southwest 277 319 7,100 -1,600 Descending Houston Center
Sat 11:06:12 PM 26.4022 -98.1306 228° Southwest 270 311 6,200 -1,082 Descending Houston Center
Sat 11:06:35 PM 26.3867 -98.1481 225° Southwest 262 302 6,000 -1,180 Descending Houston Center
Sat 11:07:13 PM 26.3583 -98.1836 228° Southwest 241 277 5,000 -1,500 Descending Houston Center
Sat 11:07:35 PM 26.3419 -98.2031 227° Southwest 227 261 4,500 -1,300 Descending Houston Center
Sat 11:08:13 PM 26.3186 -98.2336 230° Southwest 221 254 3,700 -1,377 Descending Houston Center
Sat 11:08:36 PM 26.3008 -98.2525 224° Southwest 213 245 3,100 -1,565 Descending Houston Center

Login

Don't have an account? Register now (free) for customized features, flight alerts, and more!